Flight Track Log - Related Links

Times and Time Zones

All times are in EDT time to prevent confusion due to time zone crossing. See the RAX1022 flight status page for this flight to view local times or setup timezone preferences in your user account.

Time Position Orientation Groundspeed Altitude Reporting Facility
EDT Latitude Longitude Course Direction KTS MPH feet Rate Location/Type
Tue 06:26:00 PM 32.5875 -90.0729 23° Northeast  Level FlightAware Approximate
Tue 06:27:00 PM 32.6304 -90.0501 25° Northeast  Level FlightAware Approximate
Tue 06:28:00 PM 32.6731 -90.0268 25° Northeast  Level FlightAware Approximate
Tue 06:28:20 PM 32.6258 -90.0983 25° Northeast 194 223 7,100  Level Memphis Center
Tue 06:29:00 PM 32.7158 -90.0035 25° Northeast  Level FlightAware Approximate
Tue 06:29:20 PM 32.6736 -90.0736 24° Northeast 194 223 6,900  Level Memphis Center
Tue 06:30:00 PM 32.7585 -89.9802 25° Northeast  Level FlightAware Approximate
Tue 06:30:20 PM 32.7194 -90.0486 25° Northeast 184 212 6,900  Level Memphis Center
Tue 06:31:00 PM 32.8012 -89.9568 25° Northeast  Level FlightAware Approximate
Tue 06:31:20 PM 32.7633 -90.0189 30° Northeast 179 206 7,000  Level Memphis Center
Tue 06:32:00 PM 32.8438 -89.9333 25° Northeast  Level FlightAware Approximate
Tue 06:32:20 PM 32.8050 -89.9889 31° Northeast 174 200 6,900  Level Memphis Center
Tue 06:33:00 PM 32.8864 -89.9097 25° Northeast  Level FlightAware Approximate
Tue 06:33:20 PM 32.8486 -89.9642 25° Northeast 174 200 6,900  Level Memphis Center
Tue 06:34:20 PM 32.8925 -89.9392 26° Northeast 174 200 7,000 50 Climbing Memphis Center
Tue 06:35:20 PM 32.9361 -89.9142 26° Northeast 174 200 7,000  Level Memphis Center
Tue 06:36:20 PM 32.9819 -89.8942 20° North 174 200 7,000 -50 Level Memphis Center
Tue 06:37:20 PM 33.0281 -89.8767 18° North 174 200 6,900  Descending Memphis Center
Tue 06:38:20 PM 33.0717 -89.8514 26° Northeast 168 193 7,000 100 Climbing Memphis Center
Tue 06:39:20 PM 33.1133 -89.8264 27° Northeast 168 193 7,100  Climbing Memphis Center
Tue 06:40:20 PM 33.1569 -89.8014 26° Northeast 173 199 7,000 -50 Descending Memphis Center
Tue 06:41:20 PM 33.2028 -89.7764 25° Northeast 173 199 7,000  Level Memphis Center
Tue 06:42:20 PM 33.2467 -89.7511 26° Northeast 173 199 7,000  Level Memphis Center
Tue 06:43:20 PM 33.2903 -89.7261 26° Northeast 173 199 7,000  Level Memphis Center
Tue 06:44:20 PM 33.3339 -89.7008 26° Northeast 173 199 7,000 50 Level Memphis Center
Tue 06:45:20 PM 33.3797 -89.6756 25° Northeast 173 199 7,100 50 Climbing Memphis Center
Tue 06:46:20 PM 33.4236 -89.6528 23° Northeast 173 199 7,100  Level Memphis Center
Tue 06:47:20 PM 33.4672 -89.6275 26° Northeast 173 199 7,100  Level Memphis Center
Tue 06:48:20 PM 33.5108 -89.6047 24° Northeast 173 199 7,100  Level Memphis Center
Tue 06:49:20 PM 33.5544 -89.5769 28° Northeast 173 199 7,100 -50 Level Memphis Center
Tue 06:50:20 PM 33.5981 -89.5517 26° Northeast 173 199 7,000 -100 Descending Memphis Center
Tue 06:51:20 PM 33.6439 -89.5239 27° Northeast 173 199 6,900  Descending Memphis Center
Tue 06:52:20 PM 33.6917 -89.4958 26° Northeast 173 199 7,000 50 Climbing Memphis Center
Tue 06:53:20 PM 33.7353 -89.4681 28° Northeast 173 199 7,000  Level Memphis Center
Tue 06:54:20 PM 33.7789 -89.4425 26° Northeast 173 199 7,000  Level Memphis Center
Tue 06:55:20 PM 33.8206 -89.4169 27° Northeast 173 199 7,000 50 Level Memphis Center
Tue 06:56:20 PM 33.8664 -89.3917 25° Northeast 173 199 7,100  Climbing Memphis Center
Tue 06:57:20 PM 33.9161 -89.3683 21° North 173 199 7,000  Descending Memphis Center
Tue 06:58:20 PM 33.9597 -89.3431 26° Northeast 168 193 7,100  Climbing Memphis Center
Tue 06:59:20 PM 34.0033 -89.3200 24° Northeast 173 199 7,000  Descending Memphis Center
Tue 07:00:20 PM 34.0492 -89.2917 27° Northeast 173 199 7,100 50 Climbing Memphis Center
Tue 07:01:20 PM 34.0928 -89.2661 26° Northeast 173 199 7,100 50 Level Memphis Center
Tue 07:02:20 PM 34.1342 -89.2406 27° Northeast 173 199 7,200 50 Climbing Memphis Center
Tue 07:03:20 PM 34.1778 -89.2147 26° Northeast 168 193 7,200  Level Memphis Center
Tue 07:04:20 PM 34.2214 -89.1917 24° Northeast 168 193 7,200  Level Memphis Center
Tue 07:05:20 PM 34.2631 -89.1683 25° Northeast 168 193 7,200 -50 Level Memphis Center
Tue 07:06:20 PM 34.3025 -89.1453 26° Northeast 173 199 7,100 -50 Descending Memphis Center
Tue 07:07:20 PM 34.3500 -89.1144 28° Northeast 173 199 7,100 -50 Level Memphis Center
Tue 07:08:20 PM 34.3936 -89.0886 26° Northeast 173 199 7,000 -50 Descending Memphis Center
Tue 07:09:20 PM 34.4331 -89.0678 24° Northeast 173 199 7,000  Level Memphis Center
Tue 07:10:20 PM 34.4767 -89.0419 26° Northeast 173 199 7,000  Level Memphis Center
Tue 07:11:20 PM 34.5203 -89.0161 26° Northeast 167 192 7,000  Level Memphis Center
Tue 07:12:20 PM 34.5617 -88.9928 25° Northeast 167 192 7,000 50 Level Memphis Center
Tue 07:13:20 PM 34.6072 -88.9667 25° Northeast 173 199 7,100 50 Climbing Memphis Center
Tue 07:14:20 PM 34.6508 -88.9408 26° Northeast 173 199 7,100 -50 Level Memphis Center
Tue 07:15:20 PM 34.6942 -88.9147 26° Northeast 173 199 7,000 -50 Descending Memphis Center
Tue 07:16:20 PM 34.7442 -88.8861 25° Northeast 173 199 7,000  Level Memphis Center
Tue 07:17:20 PM 34.7875 -88.8575 28° Northeast 173 199 7,000  Level Memphis Center
Tue 07:18:20 PM 34.8311 -88.8342 24° Northeast 173 199 7,000  Level Memphis Center
Tue 07:19:20 PM 34.8744 -88.8106 24° Northeast 173 199 7,000  Level Memphis Center
Tue 07:20:20 PM 34.9181 -88.7819 28° Northeast 173 199 7,000 -50 Level Memphis Center
Tue 07:21:20 PM 34.9636 -88.7581 23° Northeast 173 199 6,900 -50 Descending Memphis Center
Tue 07:22:20 PM 35.0050 -88.7344 25° Northeast 168 193 6,900 50 Level Memphis Center
Tue 07:23:20 PM 35.0464 -88.7058 30° Northeast 168 193 7,000 100 Climbing Memphis Center
Tue 07:24:20 PM 35.0897 -88.6822 24° Northeast 168 193 7,100 50 Climbing Memphis Center
Tue 07:25:20 PM 35.1311 -88.6558 28° Northeast 168 193 7,100 -50 Level Memphis Center
Tue 07:26:20 PM 35.1747 -88.6322 24° Northeast 168 193 7,000 -50 Descending Memphis Center
Tue 07:27:20 PM 35.2119 -88.6086 27° Northeast 168 193 7,000  Level Memphis Center
Tue 07:28:20 PM 35.2575 -88.5822 25° Northeast 168 193 7,000  Level Memphis Center
Tue 07:29:20 PM 35.3008 -88.5558 26° Northeast 168 193 7,000  Level Memphis Center
Tue 07:30:20 PM 35.3444 -88.5319 24° Northeast 173 199 7,000  Level Memphis Center
Tue 07:31:20 PM 35.3856 -88.5056 28° Northeast 167 192 7,000  Level Memphis Center
Tue 07:32:21 PM 35.4292 -88.4792 26° Northeast 167 192 7,000 50 Level Memphis Center
Tue 07:33:20 PM 35.4703 -88.4553 25° Northeast 172 198 7,100  Climbing Memphis Center
Tue 07:34:20 PM 35.5136 -88.4261 29° Northeast 172 198 7,000 -50 Descending Memphis Center
Tue 07:35:20 PM 35.5550 -88.4022 25° Northeast 172 198 7,000  Level Memphis Center
Tue 07:36:20 PM 35.5983 -88.3758 26° Northeast 172 198 7,000  Level Memphis Center
Tue 07:37:20 PM 35.6419 -88.3517 24° Northeast 172 198 7,000  Level Memphis Center
Tue 07:38:20 PM 35.6831 -88.3278 25° Northeast 172 198 7,000  Level Memphis Center
Tue 07:39:20 PM 35.7267 -88.3011 26° Northeast 165 190 7,000  Level Memphis Center
Tue 07:40:20 PM 35.7719 -88.2742 26° Northeast 165 190 7,000 50 Level Memphis Center
Tue 07:41:20 PM 35.8111 -88.2528 24° Northeast 160 184 7,100  Climbing Memphis Center
Tue 07:42:20 PM 35.8567 -88.2208 30° Northeast 165 190 7,000 -50 Descending Memphis Center
Tue 07:43:20 PM 35.8978 -88.1994 23° Northeast 170 196 7,000 50 Level Memphis Center
Tue 07:44:20 PM 35.9433 -88.1700 28° Northeast 170 196 7,100  Climbing Memphis Center
Tue 07:45:20 PM 35.9867 -88.1458 24° Northeast 170 196 7,000 -100 Descending Memphis Center
Tue 07:46:20 PM 36.0319 -88.1164 28° Northeast 170 196 6,900 -51 Descending Memphis Center
Tue 07:47:17 PM 36.0692 -88.0947 25° Northeast 175 201 6,900  Level Memphis Center
Tue 07:47:36 PM 36.0814 -88.0892 20° North 173 199 6,900  Level Memphis Center
Tue 07:48:20 PM 36.1144 -88.0678 28° Northeast 170 196 6,900 100 Level Memphis Center
Tue 07:48:36 PM 36.1289 -88.0569 31° Northeast 170 196 7,000 100 Climbing Memphis Center
Tue 07:49:20 PM 36.1558 -88.0433 22° Northeast 170 196 7,000  Level Memphis Center
Tue 07:49:37 PM 36.1700 -88.0328 31° Northeast 169 194 7,000  Level Memphis Center
Tue 07:50:20 PM 36.1989 -88.0164 25° Northeast 170 196 7,000  Level Memphis Center
Tue 07:50:37 PM 36.2133 -88.0058 31° Northeast 171 197 7,000  Level Memphis Center
Tue 07:51:20 PM 36.2403 -87.9897 26° Northeast 170 196 7,000  Level Memphis Center
Tue 07:51:38 PM 36.2547 -87.9814 25° Northeast 171 197 7,000  Level Memphis Center
Tue 07:52:20 PM 36.2856 -87.9625 26° Northeast 170 196 7,000  Level Memphis Center
Tue 07:52:39 PM 36.2978 -87.9544 28° Northeast 171 197 7,000 -100 Level Memphis Center
Tue 07:53:20 PM 36.3331 -87.9353 24° Northeast 170 196 6,900 -100 Descending Memphis Center
Tue 07:53:39 PM 36.3392 -87.9300 35° Northeast 172 198 6,900  Level Memphis Center
Tue 07:54:20 PM 36.3761 -87.9083 25° Northeast 170 196 6,900  Level Memphis Center
Tue 07:54:40 PM 36.3886 -87.9028 20° North 174 200 6,900  Level Memphis Center
Tue 07:55:20 PM 36.4172 -87.8786 34° Northeast 170 196 6,900  Level Memphis Center
Tue 07:55:35 PM 36.4256 -87.8783 North 174 200 6,900  Level Memphis Center
Tue 07:56:20 PM 36.4650 -87.8669 13° North 170 196 6,900 100 Level Memphis Center
Tue 07:56:35 PM 36.4733 -87.8667 North 169 194 7,000 100 Climbing Memphis Center
Tue 07:57:20 PM 36.5086 -87.8553 15° North 164 189 7,000 -90 Level Memphis Center
Tue 07:57:42 PM 36.5253 -87.8547 North 170 196 6,900 -100 Descending Memphis Center
Tue 07:58:20 PM 36.5564 -87.8486 North 164 189 6,900  Level Memphis Center
Tue 07:58:49 PM 36.5750 -87.8506 355° North 171 197 6,900 100 Level Memphis Center
Tue 07:59:20 PM 36.6042 -87.8472 North 159 183 7,000 111 Climbing Memphis Center
Tue 07:59:43 PM 36.6208 -87.8467 North 171 197 7,000  Level Memphis Center
Tue 08:00:20 PM 36.6522 -87.8456 North 159 183 7,000  Level Memphis Center
Tue 08:00:50 PM 36.6708 -87.8450 North 173 199 7,000 -100 Level Memphis Center
Tue 08:01:20 PM 36.6936 -87.8392 12° North 159 183 6,900  Descending Memphis Center
Tue 08:01:50 PM 36.7228 -87.8383 North 173 199 7,000  Climbing Memphis Center
Tue 08:02:51 PM 36.7683 -87.8136 23° Northeast 179 206 6,900 -49 Descending Memphis Center
Tue 08:03:52 PM 36.8094 -87.7914 23° Northeast 177 204 6,900  Level Memphis Center
Tue 08:04:52 PM 36.8586 -87.7561 30° Northeast 176 203 6,900  Level Memphis Center
Tue 08:05:53 PM 36.8997 -87.7289 28° Northeast 176 203 6,900 49 Level Memphis Center
Tue 08:06:54 PM 36.9431 -87.7014 27° Northeast 175 201 7,000 50 Climbing Memphis Center
Tue 08:07:54 PM 36.9861 -87.6742 27° Northeast 173 199 7,000 -47 Level Memphis Center
Tue 08:09:01 PM 37.0314 -87.6467 26° Northeast 171 197 6,900  Descending Memphis Center
Tue 08:09:56 PM 37.0703 -87.6192 29° Northeast 170 196 7,000 52 Climbing Memphis Center
Tue 08:10:56 PM 37.1136 -87.5892 29° Northeast 170 196 7,000 -28 Level Memphis Center
Tue 08:13:28 PM 37.2156 -87.5217 28° Northeast 171 197 6,900 -28 Descending Indianapolis Center
Tue 08:14:29 PM 37.2631 -87.4897 28° Northeast 171 197 6,900 49 Level Indianapolis Center
Tue 08:15:31 PM 37.3053 -87.4631 27° Northeast 169 194 7,000 49 Climbing Indianapolis Center
Tue 08:16:32 PM 37.3461 -87.4344 29° Northeast 168 193 7,000 -49 Level Indianapolis Center
Tue 08:17:34 PM 37.3889 -87.4069 27° Northeast 171 197 6,900 -48 Descending Indianapolis Center
Tue 08:18:36 PM 37.4308 -87.3775 29° Northeast 171 197 6,900  Level Indianapolis Center
Tue 08:19:38 PM 37.4731 -87.3519 26° Northeast 169 194 6,900  Level Indianapolis Center
Tue 08:20:39 PM 37.5156 -87.3233 28° Northeast 172 198 6,900 -49 Level Indianapolis Center
Tue 08:21:41 PM 37.5589 -87.2953 27° Northeast 174 200 6,800  Descending Indianapolis Center
Tue 08:22:43 PM 37.6097 -87.2600 29° Northeast 173 199 6,900 97 Climbing Indianapolis Center
Tue 08:23:45 PM 37.6525 -87.2322 27° Northeast 173 199 7,000 49 Climbing Indianapolis Center
Tue 08:24:46 PM 37.6936 -87.2039 29° Northeast 171 197 7,000  Level Indianapolis Center
Tue 08:25:48 PM 37.7361 -87.1758 28° Northeast 171 197 7,000 -48 Level Indianapolis Center
Tue 08:26:50 PM 37.7783 -87.1467 29° Northeast 172 198 6,900 -48 Descending Indianapolis Center
Tue 08:27:52 PM 37.8208 -87.1194 27° Northeast 171 197 6,900  Level Indianapolis Center
Tue 08:28:54 PM 37.8633 -87.0911 28° Northeast 172 198 6,900  Level Indianapolis Center
Tue 08:29:55 PM 37.9058 -87.0631 28° Northeast 172 198 6,900  Level Indianapolis Center
Tue 08:30:57 PM 37.9569 -87.0292 28° Northeast 172 198 6,900  Level Indianapolis Center
Tue 08:31:59 PM 37.9986 -86.9994 29° Northeast 172 198 6,900 48 Level Indianapolis Center
Tue 08:33:01 PM 38.0414 -86.9717 27° Northeast 173 199 7,000 49 Climbing Indianapolis Center
Tue 08:34:02 PM 38.0825 -86.9436 28° Northeast 169 194 7,000  Level Indianapolis Center
Tue 08:35:04 PM 38.1236 -86.9147 29° Northeast 169 194 7,000  Level Indianapolis Center
Tue 08:36:06 PM 38.1656 -86.8867 28° Northeast 171 197 7,000  Level Indianapolis Center
Tue 08:37:07 PM 38.2069 -86.8586 28° Northeast 170 196 7,000  Level Indianapolis Center
Tue 08:38:09 PM 38.2578 -86.8247 28° Northeast 171 197 7,000 -48 Level Indianapolis Center
Tue 08:39:11 PM 38.2994 -86.7958 29° Northeast 171 197 6,900 -49 Descending Indianapolis Center
Tue 08:40:12 PM 38.3414 -86.7683 27° Northeast 170 196 6,900  Level Indianapolis Center
Tue 08:41:14 PM 38.3833 -86.7386 29° Northeast 172 198 6,900 48 Level Indianapolis Center
Tue 08:42:16 PM 38.4247 -86.7117 27° Northeast 169 194 7,000 49 Climbing Indianapolis Center
Tue 08:43:17 PM 38.4669 -86.6833 28° Northeast 170 196 7,000  Level Indianapolis Center
Tue 08:44:19 PM 38.5089 -86.6544 28° Northeast 170 196 7,000  Level Indianapolis Center
Tue 08:45:21 PM 38.5514 -86.6256 28° Northeast 172 198 7,000 -49 Level Indianapolis Center
Tue 08:46:22 PM 38.6022 -86.5894 29° Northeast 173 199 6,900  Descending Indianapolis Center
Tue 08:47:24 PM 38.6444 -86.5608 28° Northeast 172 198 7,000 49 Climbing Indianapolis Center
Tue 08:48:25 PM 38.6869 -86.5314 28° Northeast 173 199 7,000  Level Indianapolis Center
Tue 08:49:27 PM 38.7294 -86.5019 28° Northeast 173 199 7,000  Level Indianapolis Center
Tue 08:50:28 PM 38.7714 -86.4733 28° Northeast 172 198 7,000  Level Indianapolis Center
Tue 08:51:30 PM 38.8139 -86.4433 29° Northeast 172 198 7,000  Level Indianapolis Center
Tue 08:52:31 PM 38.8564 -86.4147 28° Northeast 173 199 7,000  Level Indianapolis Center
Tue 08:53:33 PM 38.9058 -86.3822 27° Northeast 173 199 7,000  Level Indianapolis Center
Tue 08:54:34 PM 38.9481 -86.3519 29° Northeast 174 200 7,000  Level Indianapolis Center
Tue 08:55:36 PM 38.9906 -86.3219 29° Northeast 174 200 7,000 -49 Level Indianapolis Center
Tue 08:56:37 PM 39.0319 -86.2928 29° Northeast 173 199 6,900 -49 Descending Indianapolis Center
Tue 08:57:38 PM 39.0758 -86.2633 28° Northeast 176 203 6,900  Level Indianapolis Center
Tue 08:58:40 PM 39.1186 -86.2339 28° Northeast 176 203 6,900  Level Indianapolis Center
Tue 08:59:41 PM 39.1600 -86.2047 29° Northeast 172 198 6,900  Level Indianapolis Center
Tue 09:01:34 PM 39.2442 -86.1450 29° Northeast 174 200 6,900  Level Chicago Center
Tue 09:02:36 PM 39.2856 -86.1156 29° Northeast 174 200 6,900  Level Chicago Center
Tue 09:03:38 PM 39.3278 -86.0858 29° Northeast 173 199 6,900  Level Chicago Center
Tue 09:04:40 PM 39.3725 -86.0717 14° North 174 200 6,900  Level Chicago Center
Tue 09:05:49 PM 39.4314 -86.0783 355° North 174 200 6,900 46 Level Indianapolis Center
Tue 09:06:51 PM 39.4786 -86.0844 354° North 172 198 7,000 98 Climbing Indianapolis Center
Tue 09:07:52 PM 39.5264 -86.0906 354° North 172 198 7,100  Climbing Indianapolis Center
Tue 09:08:54 PM 39.5839 -86.0972 355° North 174 200 7,000 -49 Descending Indianapolis Center
Tue 09:09:55 PM 39.6319 -86.1039 354° North 174 200 7,000  Level Indianapolis Center
Tue 09:10:56 PM 39.6803 -86.1117 353° North 175 201 7,000  Level Indianapolis Center
Tue 09:11:57 PM 39.7292 -86.1186 354° North 178 205 7,000 -49 Level Indianapolis Center
Tue 09:12:59 PM 39.7775 -86.1267 353° North 178 205 6,900  Descending Indianapolis Center
Tue 09:13:43 PM 39.8167 -86.1333 353° North 176 203 7,000 58 Climbing Indianapolis TRACON
Tue 09:14:43 PM 39.8667 -86.1333 360° North 174 200 7,000 -50 Level Indianapolis TRACON
Tue 09:15:43 PM 39.9167 -86.1333 360° North 177 204 6,900  Descending Indianapolis TRACON
Tue 09:16:02 PM 39.9322 -86.1436 333° Northwest 176 203 7,000 74 Climbing Chicago Center
Tue 09:17:04 PM 39.9817 -86.1481 356° North 178 205 7,000 -48 Level Chicago Center
Tue 09:18:06 PM 40.0294 -86.1531 355° North 176 203 6,900  Descending Chicago Center
Tue 09:19:07 PM 40.0753 -86.1394 13° North 181 208 7,000 49 Climbing Chicago Center
Tue 09:20:08 PM 40.1108 -86.1011 40° Northeast 171 197 7,000  Level Indianapolis Center
Tue 09:21:11 PM 40.1481 -86.0581 41° Northeast 175 201 7,000  Level Chicago Center
Tue 09:22:13 PM 40.1922 -86.0075 41° Northeast 177 204 7,000  Level Chicago Center
Tue 09:23:06 PM 40.2231 -85.9708 42° Northeast 176 203 7,000 53 Level Chicago Center
Tue 09:24:06 PM 40.2639 -85.9347 34° Northeast 178 205 7,100 -45 Climbing Chicago Center
Tue 09:25:18 PM 40.3094 -85.8972 32° Northeast 178 205 6,900 -49 Descending Chicago Center
Tue 09:26:08 PM 40.3433 -85.8597 40° Northeast 177 204 7,000  Climbing Chicago Center
Tue 09:27:21 PM 40.3858 -85.8142 39° Northeast 180 207 6,900 44 Descending Chicago Center
Tue 09:28:23 PM 40.4244 -85.7739 38° Northeast 180 207 7,100 145 Climbing Chicago Center
Tue 09:29:25 PM 40.4700 -85.7256 39° Northeast 178 205 7,200 -49 Climbing Chicago Center
Tue 09:30:26 PM 40.5106 -85.6875 36° Northeast 178 205 7,000 -146 Descending Chicago Center
Tue 09:31:28 PM 40.5486 -85.6458 40° Northeast 180 207 6,900  Descending Chicago Center
Tue 09:32:30 PM 40.5881 -85.6056 38° Northeast 179 206 7,000  Climbing Chicago Center
Tue 09:33:31 PM 40.6264 -85.5683 36° Northeast 175 201 6,900  Descending Chicago Center
Tue 09:34:33 PM 40.6642 -85.5267 40° Northeast 174 200 7,000 49 Climbing Chicago Center
Tue 09:35:34 PM 40.7036 -85.4853 38° Northeast 178 205 7,000  Level Chicago Center
Tue 09:36:36 PM 40.7411 -85.4447 39° Northeast 177 204 7,000 49 Level Chicago Center
Tue 09:37:37 PM 40.7878 -85.3964 38° Northeast 178 205 7,100 49 Climbing Chicago Center
Tue 09:38:39 PM 40.8264 -85.3544 39° Northeast 179 206 7,100  Level Chicago Center
Tue 09:39:40 PM 40.8656 -85.3153 37° Northeast 178 205 7,100  Level Chicago Center
Tue 09:40:42 PM 40.9047 -85.2758 37° Northeast 178 205 7,100  Level Chicago Center
Tue 09:41:43 PM 40.9425 -85.2344 40° Northeast 177 204 7,100  Level Chicago Center
Tue 09:42:45 PM 40.9831 -85.1953 36° Northeast 180 207 7,100  Level Chicago Center
Tue 09:43:46 PM 41.0222 -85.1536 39° Northeast 180 207 7,100  Level Chicago Center
Tue 09:44:48 PM 41.0617 -85.1128 38° Northeast 180 207 7,100  Level Chicago Center
Tue 09:45:49 PM 41.1092 -85.0636 38° Northeast 181 208 7,100  Level Chicago Center
Tue 09:46:51 PM 41.1483 -85.0211 39° Northeast 182 209 7,100  Level Chicago Center
Tue 09:47:52 PM 41.1883 -84.9808 37° Northeast 182 209 7,100  Level Chicago Center
Tue 09:48:53 PM 41.2275 -84.9392 39° Northeast 181 208 7,100 -49 Level Chicago Center
Tue 09:49:55 PM 41.2661 -84.8972 39° Northeast 181 208 7,000 -49 Descending Chicago Center
Tue 09:50:56 PM 41.3064 -84.8561 37° Northeast 181 208 7,000  Level Chicago Center
Tue 09:51:58 PM 41.3456 -84.8136 39° Northeast 182 209 7,000  Level Chicago Center
Tue 09:52:59 PM 41.3939 -84.7636 38° Northeast 183 211 7,000  Level Chicago Center
Tue 09:54:00 PM 41.4336 -84.7206 39° Northeast 184 212 7,000 -49 Level Chicago Center
Tue 09:55:01 PM 41.4739 -84.6789 38° Northeast 184 212 6,900  Descending Chicago Center
Tue 09:56:03 PM 41.5136 -84.6364 39° Northeast 184 212 7,000 49 Climbing Chicago Center
Tue 09:57:04 PM 41.5533 -84.5936 39° Northeast 184 212 7,000 -49 Level Chicago Center
Tue 09:58:05 PM 41.5928 -84.5508 39° Northeast 183 211 6,900  Descending Chicago Center
Tue 09:59:07 PM 41.6319 -84.5097 38° Northeast 182 209 7,000 49 Climbing Chicago Center
Tue 10:00:08 PM 41.6711 -84.4658 40° Northeast 183 211 7,000 49 Level Chicago Center
Tue 10:01:10 PM 41.7117 -84.4264 36° Northeast 182 209 7,100  Climbing Chicago Center
Tue 10:02:11 PM 41.7597 -84.3758 38° Northeast 183 211 7,000 -49 Descending Chicago Center
Tue 10:03:12 PM 41.7992 -84.3328 39° Northeast 183 211 7,000  Level Chicago Center
Tue 10:03:30 PM 41.8094 -84.3219 38° Northeast 183 211 7,000  Level Cleveland Center
Tue 10:04:06 PM 41.8333 -84.2928 42° Northeast 183 211 7,000  Level Cleveland Center

Login

Don't have an account? Register now (free) for customized features, flight alerts, and more!